sensor_id;sensor_type;location;lat;lon;timestamp;temperature;humidity
6956;DHT22;50345;51.136;16.886;2023-04-03T00:01:01;2.70;99.90
6956;DHT22;50345;51.136;16.886;2023-04-03T00:03:27;2.70;99.90
6956;DHT22;50345;51.136;16.886;2023-04-03T00:05:53;2.60;99.90
6956;DHT22;50345;51.136;16.886;2023-04-03T00:08:19;2.60;99.90
6956;DHT22;50345;51.136;16.886;2023-04-03T00:10:45;2.60;99.90
6956;DHT22;50345;51.136;16.886;2023-04-03T00:13:11;2.50;99.90
6956;DHT22;50345;51.136;16.886;2023-04-03T00:15:37;2.50;99.90
6956;DHT22;50345;51.136;16.886;2023-04-03T00:18:03;2.50;99.90
6956;DHT22;50345;51.136;16.886;2023-04-03T00:20:29;2.50;99.90
6956;DHT22;50345;51.136;16.886;2023-04-03T00:22:55;2.50;99.90
6956;DHT22;50345;51.136;16.886;2023-04-03T00:25:21;2.50;99.90
6956;DHT22;50345;51.136;16.886;2023-04-03T00:27:47;2.50;99.90
6956;DHT22;50345;51.136;16.886;2023-04-03T00:30:15;2.50;99.90
6956;DHT22;50345;51.136;16.886;2023-04-03T00:32:41;2.50;99.90
6956;DHT22;50345;51.136;16.886;2023-04-03T00:37:33;2.40;99.90
6956;DHT22;50345;51.136;16.886;2023-04-03T00:39:59;2.30;99.90
6956;DHT22;50345;51.136;16.886;2023-04-03T00:42:25;2.30;99.90
6956;DHT22;50345;51.136;16.886;2023-04-03T00:47:23;2.30;99.90
6956;DHT22;50345;51.136;16.886;2023-04-03T00:49:50;2.30;99.90
6956;DHT22;50345;51.136;16.886;2023-04-03T00:52:19;2.30;99.90
6956;DHT22;50345;51.136;16.886;2023-04-03T00:54:47;2.30;99.90
6956;DHT22;50345;51.136;16.886;2023-04-03T00:57:14;2.20;99.90
6956;DHT22;50345;51.136;16.886;2023-04-03T00:59:46;2.20;99.90
6956;DHT22;50345;51.136;16.886;2023-04-03T01:02:14;2.20;99.90
6956;DHT22;50345;51.136;16.886;2023-04-03T01:04:41;2.20;99.90
6956;DHT22;50345;51.136;16.886;2023-04-03T01:07:08;2.20;99.90
6956;DHT22;50345;51.136;16.886;2023-04-03T01:09:36;2.20;99.90
6956;DHT22;50345;51.136;16.886;2023-04-03T01:12:22;2.20;99.90
6956;DHT22;50345;51.136;16.886;2023-04-03T01:14:51;2.20;99.90
6956;DHT22;50345;51.136;16.886;2023-04-03T01:17:33;2.20;99.90
6956;DHT22;50345;51.136;16.886;2023-04-03T01:25:23;2.20;99.90
6956;DHT22;50345;51.136;16.886;2023-04-03T01:27:49;2.20;99.90
6956;DHT22;50345;51.136;16.886;2023-04-03T01:30:18;2.30;99.90
6956;DHT22;50345;51.136;16.886;2023-04-03T01:32:44;2.30;99.90
6956;DHT22;50345;51.136;16.886;2023-04-03T01:35:10;2.30;99.90
6956;DHT22;50345;51.136;16.886;2023-04-03T01:37:36;2.30;99.90
6956;DHT22;50345;51.136;16.886;2023-04-03T01:40:03;2.40;99.90
6956;DHT22;50345;51.136;16.886;2023-04-03T01:42:29;2.40;99.90
6956;DHT22;50345;51.136;16.886;2023-04-03T01:44:54;2.50;99.90
6956;DHT22;50345;51.136;16.886;2023-04-03T01:47:21;2.50;99.90
6956;DHT22;50345;51.136;16.886;2023-04-03T01:49:46;2.50;99.90
6956;DHT22;50345;51.136;16.886;2023-04-03T01:52:12;2.40;99.90
6956;DHT22;50345;51.136;16.886;2023-04-03T01:54:38;2.40;99.90
6956;DHT22;50345;51.136;16.886;2023-04-03T01:57:03;2.40;99.90
6956;DHT22;50345;51.136;16.886;2023-04-03T01:59:29;2.30;99.90
6956;DHT22;50345;51.136;16.886;2023-04-03T02:01:55;2.30;99.90
6956;DHT22;50345;51.136;16.886;2023-04-03T02:04:20;2.20;99.90
6956;DHT22;50345;51.136;16.886;2023-04-03T02:06:46;2.10;99.90
6956;DHT22;50345;51.136;16.886;2023-04-03T02:09:11;2.00;99.90
6956;DHT22;50345;51.136;16.886;2023-04-03T02:11:37;2.00;99.90
6956;DHT22;50345;51.136;16.886;2023-04-03T02:14:03;2.00;99.90
6956;DHT22;50345;51.136;16.886;2023-04-03T02:16:29;1.90;99.90
6956;DHT22;50345;51.136;16.886;2023-04-03T02:18:56;1.90;99.90
6956;DHT22;50345;51.136;16.886;2023-04-03T02:21:21;1.80;99.90
6956;DHT22;50345;51.136;16.886;2023-04-03T02:23:47;1.80;99.90
6956;DHT22;50345;51.136;16.886;2023-04-03T02:26:15;1.70;99.90
6956;DHT22;50345;51.136;16.886;2023-04-03T02:28:41;1.70;99.90
6956;DHT22;50345;51.136;16.886;2023-04-03T02:31:07;1.70;99.90
6956;DHT22;50345;51.136;16.886;2023-04-03T02:33:33;1.60;99.90
6956;DHT22;50345;51.136;16.886;2023-04-03T02:35:59;1.50;99.90
6956;DHT22;50345;51.136;16.886;2023-04-03T02:38:25;1.50;99.90
6956;DHT22;50345;51.136;16.886;2023-04-03T02:40:51;1.50;99.90
6956;DHT22;50345;51.136;16.886;2023-04-03T02:43:17;1.40;99.90
6956;DHT22;50345;51.136;16.886;2023-04-03T02:45:44;1.40;99.90
6956;DHT22;50345;51.136;16.886;2023-04-03T02:48:09;1.40;99.90
6956;DHT22;50345;51.136;16.886;2023-04-03T02:50:35;1.40;99.90
6956;DHT22;50345;51.136;16.886;2023-04-03T02:53:00;1.40;99.90
6956;DHT22;50345;51.136;16.886;2023-04-03T02:55:26;1.30;99.90
6956;DHT22;50345;51.136;16.886;2023-04-03T02:57:52;1.30;99.90
6956;DHT22;50345;51.136;16.886;2023-04-03T03:00:18;1.30;99.90
6956;DHT22;50345;51.136;16.886;2023-04-03T03:02:43;1.30;99.90
6956;DHT22;50345;51.136;16.886;2023-04-03T03:05:09;1.30;99.90
6956;DHT22;50345;51.136;16.886;2023-04-03T03:07:34;1.30;99.90
6956;DHT22;50345;51.136;16.886;2023-04-03T03:10:00;1.30;99.90
6956;DHT22;50345;51.136;16.886;2023-04-03T03:12:26;1.40;99.90
6956;DHT22;50345;51.136;16.886;2023-04-03T03:14:51;1.40;99.90
6956;DHT22;50345;51.136;16.886;2023-04-03T03:17:17;1.40;99.90
6956;DHT22;50345;51.136;16.886;2023-04-03T03:19:43;1.40;99.90
6956;DHT22;50345;51.136;16.886;2023-04-03T03:22:11;1.40;99.90
6956;DHT22;50345;51.136;16.886;2023-04-03T03:24:36;1.40;99.90
6956;DHT22;50345;51.136;16.886;2023-04-03T03:27:02;1.30;99.90
6956;DHT22;50345;51.136;16.886;2023-04-03T03:29:28;1.30;99.90
6956;DHT22;50345;51.136;16.886;2023-04-03T03:31:53;1.20;99.90
6956;DHT22;50345;51.136;16.886;2023-04-03T03:34:19;1.20;99.90
6956;DHT22;50345;51.136;16.886;2023-04-03T03:36:45;1.10;99.90
6956;DHT22;50345;51.136;16.886;2023-04-03T03:39:10;1.10;99.90
6956;DHT22;50345;51.136;16.886;2023-04-03T03:41:36;1.10;99.90
6956;DHT22;50345;51.136;16.886;2023-04-03T03:44:02;1.10;99.90
6956;DHT22;50345;51.136;16.886;2023-04-03T03:46:27;1.00;99.90
6956;DHT22;50345;51.136;16.886;2023-04-03T03:48:53;0.90;99.90
6956;DHT22;50345;51.136;16.886;2023-04-03T03:51:18;0.90;99.90
6956;DHT22;50345;51.136;16.886;2023-04-03T03:56:10;0.80;99.90
6956;DHT22;50345;51.136;16.886;2023-04-03T03:58:36;0.70;99.90
6956;DHT22;50345;51.136;16.886;2023-04-03T04:01:04;0.80;99.90
6956;DHT22;50345;51.136;16.886;2023-04-03T04:03:30;0.70;99.90
6956;DHT22;50345;51.136;16.886;2023-04-03T04:05:56;0.70;99.90
6956;DHT22;50345;51.136;16.886;2023-04-03T04:08:23;0.60;99.90
6956;DHT22;50345;51.136;16.886;2023-04-03T04:10:48;0.60;99.90
6956;DHT22;50345;51.136;16.886;2023-04-03T04:13:14;0.50;99.90
6956;DHT22;50345;51.136;16.886;2023-04-03T04:15:40;0.50;99.90
6956;DHT22;50345;51.136;16.886;2023-04-03T04:18:05;0.60;99.90
6956;DHT22;50345;51.136;16.886;2023-04-03T04:20:31;0.50;99.90
6956;DHT22;50345;51.136;16.886;2023-04-03T04:22:57;0.50;99.90
6956;DHT22;50345;51.136;16.886;2023-04-03T04:25:23;0.50;99.90
6956;DHT22;50345;51.136;16.886;2023-04-03T04:27:48;0.40;99.90
6956;DHT22;50345;51.136;16.886;2023-04-03T04:30:14;0.40;99.90
6956;DHT22;50345;51.136;16.886;2023-04-03T04:32:40;0.50;99.90
6956;DHT22;50345;51.136;16.886;2023-04-03T04:35:06;0.50;99.90
6956;DHT22;50345;51.136;16.886;2023-04-03T04:37:32;0.50;99.90
6956;DHT22;50345;51.136;16.886;2023-04-03T04:39:58;0.50;99.90
6956;DHT22;50345;51.136;16.886;2023-04-03T04:42:23;0.40;99.90
6956;DHT22;50345;51.136;16.886;2023-04-03T04:44:49;0.40;99.90
6956;DHT22;50345;51.136;16.886;2023-04-03T04:47:16;0.50;99.90
6956;DHT22;50345;51.136;16.886;2023-04-03T04:49:41;0.40;99.90
6956;DHT22;50345;51.136;16.886;2023-04-03T04:52:07;0.50;99.90
6956;DHT22;50345;51.136;16.886;2023-04-03T04:54:33;0.50;99.90
6956;DHT22;50345;51.136;16.886;2023-04-03T04:56:58;0.50;99.90
6956;DHT22;50345;51.136;16.886;2023-04-03T04:59:24;0.60;99.90
6956;DHT22;50345;51.136;16.886;2023-04-03T05:01:50;0.60;99.90
6956;DHT22;50345;51.136;16.886;2023-04-03T05:04:16;0.60;99.90
6956;DHT22;50345;51.136;16.886;2023-04-03T05:06:42;0.60;99.90
6956;DHT22;50345;51.136;16.886;2023-04-03T05:09:08;0.70;99.90
6956;DHT22;50345;51.136;16.886;2023-04-03T05:11:35;0.70;99.90
6956;DHT22;50345;51.136;16.886;2023-04-03T05:14:01;0.80;99.90
6956;DHT22;50345;51.136;16.886;2023-04-03T05:16:27;0.80;99.90
6956;DHT22;50345;51.136;16.886;2023-04-03T05:18:53;0.80;99.90
6956;DHT22;50345;51.136;16.886;2023-04-03T05:21:18;0.90;99.90
6956;DHT22;50345;51.136;16.886;2023-04-03T05:23:44;0.90;99.90
6956;DHT22;50345;51.136;16.886;2023-04-03T05:26:10;0.90;99.90
6956;DHT22;50345;51.136;16.886;2023-04-03T05:28:35;0.90;99.90
6956;DHT22;50345;51.136;16.886;2023-04-03T05:31:01;0.90;99.90
6956;DHT22;50345;51.136;16.886;2023-04-03T05:33:27;1.00;99.90
6956;DHT22;50345;51.136;16.886;2023-04-03T05:35:54;1.00;99.90
6956;DHT22;50345;51.136;16.886;2023-04-03T05:38:20;1.00;99.90
6956;DHT22;50345;51.136;16.886;2023-04-03T05:40:46;1.10;99.90
6956;DHT22;50345;51.136;16.886;2023-04-03T05:43:12;1.20;99.90
6956;DHT22;50345;51.136;16.886;2023-04-03T05:45:38;1.20;99.90
6956;DHT22;50345;51.136;16.886;2023-04-03T05:48:03;1.20;99.90
6956;DHT22;50345;51.136;16.886;2023-04-03T05:50:29;1.30;99.90
6956;DHT22;50345;51.136;16.886;2023-04-03T05:52:57;1.30;99.90
6956;DHT22;50345;51.136;16.886;2023-04-03T05:55:24;1.40;99.90
6956;DHT22;50345;51.136;16.886;2023-04-03T05:57:49;1.50;99.90
6956;DHT22;50345;51.136;16.886;2023-04-03T06:00:16;1.60;99.90
6956;DHT22;50345;51.136;16.886;2023-04-03T06:02:42;1.60;99.90
6956;DHT22;50345;51.136;16.886;2023-04-03T06:05:08;1.60;99.90
6956;DHT22;50345;51.136;16.886;2023-04-03T06:07:34;1.70;99.90
6956;DHT22;50345;51.136;16.886;2023-04-03T06:10:00;1.70;99.90
6956;DHT22;50345;51.136;16.886;2023-04-03T06:12:27;1.80;99.90
6956;DHT22;50345;51.136;16.886;2023-04-03T06:14:55;1.80;99.90
6956;DHT22;50345;51.136;16.886;2023-04-03T06:17:20;1.90;99.90
6956;DHT22;50345;51.136;16.886;2023-04-03T06:19:47;2.00;99.90
6956;DHT22;50345;51.136;16.886;2023-04-03T06:22:13;2.00;99.90
6956;DHT22;50345;51.136;16.886;2023-04-03T06:24:39;2.10;99.90
6956;DHT22;50345;51.136;16.886;2023-04-03T06:27:05;2.30;99.90
6956;DHT22;50345;51.136;16.886;2023-04-03T06:29:31;2.40;99.90
6956;DHT22;50345;51.136;16.886;2023-04-03T06:31:57;2.60;99.90
6956;DHT22;50345;51.136;16.886;2023-04-03T06:34:23;2.60;99.90
6956;DHT22;50345;51.136;16.886;2023-04-03T06:36:49;2.60;99.90
6956;DHT22;50345;51.136;16.886;2023-04-03T06:39:18;2.70;99.90
6956;DHT22;50345;51.136;16.886;2023-04-03T06:41:46;2.80;99.90
6956;DHT22;50345;51.136;16.886;2023-04-03T06:44:11;2.90;99.90
6956;DHT22;50345;51.136;16.886;2023-04-03T06:46:39;3.20;99.90
6956;DHT22;50345;51.136;16.886;2023-04-03T06:49:05;3.30;99.90
6956;DHT22;50345;51.136;16.886;2023-04-03T06:51:33;3.50;99.90
6956;DHT22;50345;51.136;16.886;2023-04-03T06:54:00;3.60;99.90
6956;DHT22;50345;51.136;16.886;2023-04-03T06:56:26;3.70;99.90
6956;DHT22;50345;51.136;16.886;2023-04-03T06:58:56;3.70;99.90
6956;DHT22;50345;51.136;16.886;2023-04-03T07:01:24;3.80;99.90
6956;DHT22;50345;51.136;16.886;2023-04-03T07:03:52;3.90;99.90
6956;DHT22;50345;51.136;16.886;2023-04-03T07:06:18;4.00;99.90
6956;DHT22;50345;51.136;16.886;2023-04-03T07:08:44;4.10;99.90
6956;DHT22;50345;51.136;16.886;2023-04-03T07:11:11;4.40;99.90
6956;DHT22;50345;51.136;16.886;2023-04-03T07:13:37;4.50;99.90
6956;DHT22;50345;51.136;16.886;2023-04-03T07:16:04;4.60;99.90
6956;DHT22;50345;51.136;16.886;2023-04-03T07:18:31;4.60;99.90
6956;DHT22;50345;51.136;16.886;2023-04-03T07:20:57;4.70;99.90
6956;DHT22;50345;51.136;16.886;2023-04-03T07:23:23;4.80;99.90
6956;DHT22;50345;51.136;16.886;2023-04-03T07:28:17;5.10;99.90
6956;DHT22;50345;51.136;16.886;2023-04-03T07:30:51;5.20;99.90
6956;DHT22;50345;51.136;16.886;2023-04-03T07:33:19;5.20;99.90
6956;DHT22;50345;51.136;16.886;2023-04-03T07:35:46;5.20;99.90
6956;DHT22;50345;51.136;16.886;2023-04-03T07:38:12;5.20;99.90
6956;DHT22;50345;51.136;16.886;2023-04-03T07:40:38;5.30;99.90
6956;DHT22;50345;51.136;16.886;2023-04-03T07:43:05;5.30;99.90
6956;DHT22;50345;51.136;16.886;2023-04-03T07:45:31;5.30;99.90
6956;DHT22;50345;51.136;16.886;2023-04-03T07:47:59;5.50;99.90
6956;DHT22;50345;51.136;16.886;2023-04-03T07:50:26;5.60;99.90
6956;DHT22;50345;51.136;16.886;2023-04-03T07:52:52;5.60;99.90
6956;DHT22;50345;51.136;16.886;2023-04-03T07:55:20;5.70;99.90
6956;DHT22;50345;51.136;16.886;2023-04-03T07:57:45;5.70;99.90
6956;DHT22;50345;51.136;16.886;2023-04-03T08:00:12;5.70;99.90
6956;DHT22;50345;51.136;16.886;2023-04-03T08:02:38;5.60;99.90
6956;DHT22;50345;51.136;16.886;2023-04-03T08:05:04;5.50;99.90
6956;DHT22;50345;51.136;16.886;2023-04-03T08:07:29;5.40;99.90
6956;DHT22;50345;51.136;16.886;2023-04-03T08:09:55;5.20;99.90
6956;DHT22;50345;51.136;16.886;2023-04-03T08:12:21;5.30;99.90
6956;DHT22;50345;51.136;16.886;2023-04-03T08:14:47;5.40;99.90
6956;DHT22;50345;51.136;16.886;2023-04-03T08:17:13;5.40;99.90
6956;DHT22;50345;51.136;16.886;2023-04-03T08:19:39;5.40;99.90
6956;DHT22;50345;51.136;16.886;2023-04-03T08:22:06;5.50;99.90
6956;DHT22;50345;51.136;16.886;2023-04-03T08:24:32;5.60;99.90
6956;DHT22;50345;51.136;16.886;2023-04-03T08:26:58;6.00;99.90
6956;DHT22;50345;51.136;16.886;2023-04-03T08:29:24;6.20;99.90
6956;DHT22;50345;51.136;16.886;2023-04-03T08:31:50;6.40;99.50
6956;DHT22;50345;51.136;16.886;2023-04-03T08:34:17;6.60;99.70
6956;DHT22;50345;51.136;16.886;2023-04-03T08:36:43;7.00;99.50
6956;DHT22;50345;51.136;16.886;2023-04-03T08:39:09;7.60;94.50
6956;DHT22;50345;51.136;16.886;2023-04-03T08:41:40;8.00;91.20
6956;DHT22;50345;51.136;16.886;2023-04-03T08:49:56;8.50;81.50
6956;DHT22;50345;51.136;16.886;2023-04-03T08:52:38;8.20;77.90
6956;DHT22;50345;51.136;16.886;2023-04-03T08:55:14;7.90;76.90
6956;DHT22;50345;51.136;16.886;2023-04-03T08:57:43;7.70;78.80
6956;DHT22;50345;51.136;16.886;2023-04-03T09:02:47;7.70;79.30
6956;DHT22;50345;51.136;16.886;2023-04-03T09:05:17;8.10;77.40
6956;DHT22;50345;51.136;16.886;2023-04-03T09:07:51;8.50;73.30
6956;DHT22;50345;51.136;16.886;2023-04-03T09:12:57;10.30;61.30
6956;DHT22;50345;51.136;16.886;2023-04-03T09:15:24;11.50;55.60
6956;DHT22;50345;51.136;16.886;2023-04-03T09:18:12;11.60;54.40
6956;DHT22;50345;51.136;16.886;2023-04-03T09:23:45;9.90;52.80
6956;DHT22;50345;51.136;16.886;2023-04-03T09:26:18;9.60;54.60
6956;DHT22;50345;51.136;16.886;2023-04-03T09:28:46;9.50;56.60
6956;DHT22;50345;51.136;16.886;2023-04-03T09:31:23;9.70;54.90
6956;DHT22;50345;51.136;16.886;2023-04-03T09:33:52;9.60;55.00
6956;DHT22;50345;51.136;16.886;2023-04-03T09:36:38;9.40;55.70
6956;DHT22;50345;51.136;16.886;2023-04-03T09:39:07;9.20;56.20
6956;DHT22;50345;51.136;16.886;2023-04-03T09:41:35;11.20;54.60
6956;DHT22;50345;51.136;16.886;2023-04-03T09:44:00;13.60;48.00
6956;DHT22;50345;51.136;16.886;2023-04-03T09:46:31;13.80;46.90
6956;DHT22;50345;51.136;16.886;2023-04-03T09:49:00;13.40;45.70
6956;DHT22;50345;51.136;16.886;2023-04-03T09:51:29;12.70;45.40
6956;DHT22;50345;51.136;16.886;2023-04-03T09:53:57;11.30;43.70
6956;DHT22;50345;51.136;16.886;2023-04-03T09:56:29;11.30;45.00
6956;DHT22;50345;51.136;16.886;2023-04-03T10:06:32;12.10;42.40
6956;DHT22;50345;51.136;16.886;2023-04-03T10:09:25;11.00;43.40
6956;DHT22;50345;51.136;16.886;2023-04-03T10:12:11;13.20;43.50
6956;DHT22;50345;51.136;16.886;2023-04-03T10:14:39;14.20;40.00
6956;DHT22;50345;51.136;16.886;2023-04-03T10:17:24;14.20;41.10
6956;DHT22;50345;51.136;16.886;2023-04-03T10:20:02;13.80;41.00
6956;DHT22;50345;51.136;16.886;2023-04-03T10:25:41;13.40;41.90
6956;DHT22;50345;51.136;16.886;2023-04-03T10:36:46;11.70;42.50
6956;DHT22;50345;51.136;16.886;2023-04-03T10:42:05;13.40;40.60
6956;DHT22;50345;51.136;16.886;2023-04-03T10:57:45;19.60;32.20
6956;DHT22;50345;51.136;16.886;2023-04-03T11:00:25;18.30;32.70
6956;DHT22;50345;51.136;16.886;2023-04-03T11:02:57;16.80;32.50
6956;DHT22;50345;51.136;16.886;2023-04-03T11:05:48;15.40;32.80
6956;DHT22;50345;51.136;16.886;2023-04-03T11:11:00;16.30;34.70
6956;DHT22;50345;51.136;16.886;2023-04-03T11:13:41;15.70;33.70
6956;DHT22;50345;51.136;16.886;2023-04-03T11:16:09;14.70;35.10
6956;DHT22;50345;51.136;16.886;2023-04-03T11:21:20;16.00;35.50
6956;DHT22;50345;51.136;16.886;2023-04-03T11:23:48;17.60;33.40
6956;DHT22;50345;51.136;16.886;2023-04-03T11:26:19;17.10;32.10
6956;DHT22;50345;51.136;16.886;2023-04-03T11:28:46;16.00;32.10
6956;DHT22;50345;51.136;16.886;2023-04-03T11:31:48;15.40;32.40
6956;DHT22;50345;51.136;16.886;2023-04-03T11:34:40;17.00;33.30
6956;DHT22;50345;51.136;16.886;2023-04-03T11:37:20;18.80;31.90
6956;DHT22;50345;51.136;16.886;2023-04-03T11:40:21;19.40;31.00
6956;DHT22;50345;51.136;16.886;2023-04-03T11:42:51;19.20;30.60
6956;DHT22;50345;51.136;16.886;2023-04-03T11:45:27;17.90;29.80
6956;DHT22;50345;51.136;16.886;2023-04-03T11:50:58;15.80;31.30
6956;DHT22;50345;51.136;16.886;2023-04-03T11:53:37;15.20;32.50
6956;DHT22;50345;51.136;16.886;2023-04-03T12:04:18;17.10;32.20
6956;DHT22;50345;51.136;16.886;2023-04-03T12:09:54;15.80;31.80
6956;DHT22;50345;51.136;16.886;2023-04-03T12:12:29;16.40;32.10
6956;DHT22;50345;51.136;16.886;2023-04-03T12:14:55;18.10;32.00
6956;DHT22;50345;51.136;16.886;2023-04-03T12:17:25;19.40;30.70
6956;DHT22;50345;51.136;16.886;2023-04-03T12:19:52;18.80;29.50
6956;DHT22;50345;51.136;16.886;2023-04-03T12:22:19;17.70;29.00
6956;DHT22;50345;51.136;16.886;2023-04-03T12:24:48;17.10;30.00
6956;DHT22;50345;51.136;16.886;2023-04-03T12:35:27;16.10;31.30
6956;DHT22;50345;51.136;16.886;2023-04-03T12:38:16;17.10;31.50
6956;DHT22;50345;51.136;16.886;2023-04-03T12:46:38;20.50;28.30
6956;DHT22;50345;51.136;16.886;2023-04-03T12:49:30;19.20;28.30
6956;DHT22;50345;51.136;16.886;2023-04-03T12:51:58;17.70;29.20
6956;DHT22;50345;51.136;16.886;2023-04-03T12:54:35;17.00;29.80
6956;DHT22;50345;51.136;16.886;2023-04-03T12:59:38;16.30;30.00
6956;DHT22;50345;51.136;16.886;2023-04-03T13:02:29;15.70;30.20
6956;DHT22;50345;51.136;16.886;2023-04-03T13:05:06;15.10;30.30
6956;DHT22;50345;51.136;16.886;2023-04-03T13:07:34;16.10;30.60
6956;DHT22;50345;51.136;16.886;2023-04-03T13:12:35;19.10;29.10
6956;DHT22;50345;51.136;16.886;2023-04-03T13:15:21;19.80;28.00
6956;DHT22;50345;51.136;16.886;2023-04-03T13:17:48;18.80;27.80
6956;DHT22;50345;51.136;16.886;2023-04-03T13:20:31;17.70;28.50
6956;DHT22;50345;51.136;16.886;2023-04-03T13:23:06;17.90;29.70
6956;DHT22;50345;51.136;16.886;2023-04-03T13:25:35;17.70;28.40
6956;DHT22;50345;51.136;16.886;2023-04-03T13:28:04;16.80;28.50
6956;DHT22;50345;51.136;16.886;2023-04-03T13:30:36;16.10;29.50
6956;DHT22;50345;51.136;16.886;2023-04-03T13:33:05;16.90;29.70
6956;DHT22;50345;51.136;16.886;2023-04-03T13:35:36;18.20;29.20
6956;DHT22;50345;51.136;16.886;2023-04-03T13:38:27;19.60;27.80
6956;DHT22;50345;51.136;16.886;2023-04-03T13:40:56;21.80;26.90
6956;DHT22;50345;51.136;16.886;2023-04-03T13:43:27;23.30;26.70
6956;DHT22;50345;51.136;16.886;2023-04-03T13:48:44;23.90;24.80
6956;DHT22;50345;51.136;16.886;2023-04-03T13:54:15;21.00;24.20
6956;DHT22;50345;51.136;16.886;2023-04-03T13:56:42;20.60;25.30
6956;DHT22;50345;51.136;16.886;2023-04-03T14:04:23;19.10;26.60
6956;DHT22;50345;51.136;16.886;2023-04-03T14:06:49;18.00;27.20
6956;DHT22;50345;51.136;16.886;2023-04-03T14:09:17;16.90;27.20
6956;DHT22;50345;51.136;16.886;2023-04-03T14:11:43;15.70;28.00
6956;DHT22;50345;51.136;16.886;2023-04-03T14:14:16;14.80;29.40
6956;DHT22;50345;51.136;16.886;2023-04-03T14:16:46;15.20;30.70
6956;DHT22;50345;51.136;16.886;2023-04-03T14:19:25;17.00;29.90
6956;DHT22;50345;51.136;16.886;2023-04-03T14:21:53;18.50;28.30
6956;DHT22;50345;51.136;16.886;2023-04-03T14:24:20;18.10;27.20
6956;DHT22;50345;51.136;16.886;2023-04-03T14:26:46;17.00;26.90
6956;DHT22;50345;51.136;16.886;2023-04-03T14:29:13;15.90;27.50
6956;DHT22;50345;51.136;16.886;2023-04-03T14:31:39;15.50;28.70
6956;DHT22;50345;51.136;16.886;2023-04-03T14:34:05;16.80;29.10
6956;DHT22;50345;51.136;16.886;2023-04-03T14:36:33;18.20;28.90
6956;DHT22;50345;51.136;16.886;2023-04-03T14:39:00;17.90;27.70
6956;DHT22;50345;51.136;16.886;2023-04-03T14:41:26;17.00;27.80
6956;DHT22;50345;51.136;16.886;2023-04-03T14:43:53;16.00;27.80
6956;DHT22;50345;51.136;16.886;2023-04-03T14:46:27;15.00;28.00
6956;DHT22;50345;51.136;16.886;2023-04-03T14:48:53;14.50;28.80
6956;DHT22;50345;51.136;16.886;2023-04-03T14:51:20;14.90;29.50
6956;DHT22;50345;51.136;16.886;2023-04-03T14:53:45;14.80;29.50
6956;DHT22;50345;51.136;16.886;2023-04-03T14:56:29;13.60;30.10
6956;DHT22;50345;51.136;16.886;2023-04-03T14:58:57;12.90;31.50
6956;DHT22;50345;51.136;16.886;2023-04-03T15:01:24;12.80;32.20
6956;DHT22;50345;51.136;16.886;2023-04-03T15:03:50;12.30;33.10
6956;DHT22;50345;51.136;16.886;2023-04-03T15:06:15;11.90;33.60
6956;DHT22;50345;51.136;16.886;2023-04-03T15:08:42;11.60;34.20
6956;DHT22;50345;51.136;16.886;2023-04-03T15:11:11;11.50;34.30
6956;DHT22;50345;51.136;16.886;2023-04-03T15:13:37;11.40;34.40
6956;DHT22;50345;51.136;16.886;2023-04-03T15:16:05;11.40;34.30
6956;DHT22;50345;51.136;16.886;2023-04-03T15:18:35;11.30;34.10
6956;DHT22;50345;51.136;16.886;2023-04-03T15:21:03;11.20;34.70
6956;DHT22;50345;51.136;16.886;2023-04-03T15:23:29;10.90;35.20
6956;DHT22;50345;51.136;16.886;2023-04-03T15:25:55;10.70;35.50
6956;DHT22;50345;51.136;16.886;2023-04-03T15:30:50;10.00;36.10
6956;DHT22;50345;51.136;16.886;2023-04-03T15:35:42;9.70;44.50
6956;DHT22;50345;51.136;16.886;2023-04-03T15:38:08;9.50;38.90
6956;DHT22;50345;51.136;16.886;2023-04-03T15:40:35;9.40;39.30
6956;DHT22;50345;51.136;16.886;2023-04-03T15:43:00;9.30;39.70
6956;DHT22;50345;51.136;16.886;2023-04-03T15:45:29;9.20;39.80
6956;DHT22;50345;51.136;16.886;2023-04-03T15:47:56;9.00;39.50
6956;DHT22;50345;51.136;16.886;2023-04-03T15:50:22;8.80;39.80
6956;DHT22;50345;51.136;16.886;2023-04-03T15:52:52;8.80;40.70
6956;DHT22;50345;51.136;16.886;2023-04-03T15:55:24;8.80;40.70
6956;DHT22;50345;51.136;16.886;2023-04-03T15:57:51;8.80;40.80
6956;DHT22;50345;51.136;16.886;2023-04-03T16:00:17;8.70;41.10
6956;DHT22;50345;51.136;16.886;2023-04-03T16:02:44;8.60;41.10
6956;DHT22;50345;51.136;16.886;2023-04-03T16:05:11;8.40;41.20
6956;DHT22;50345;51.136;16.886;2023-04-03T16:07:40;8.20;41.60
6956;DHT22;50345;51.136;16.886;2023-04-03T16:10:08;8.00;41.90
6956;DHT22;50345;51.136;16.886;2023-04-03T16:12:34;7.90;42.60
6956;DHT22;50345;51.136;16.886;2023-04-03T16:15:00;7.80;43.20
6956;DHT22;50345;51.136;16.886;2023-04-03T16:17:26;7.70;43.60
6956;DHT22;50345;51.136;16.886;2023-04-03T16:19:54;7.70;43.30
6956;DHT22;50345;51.136;16.886;2023-04-03T16:22:20;7.70;43.70
6956;DHT22;50345;51.136;16.886;2023-04-03T16:24:45;7.70;43.40
6956;DHT22;50345;51.136;16.886;2023-04-03T16:27:11;7.60;42.90
6956;DHT22;50345;51.136;16.886;2023-04-03T16:29:37;7.60;43.40
6956;DHT22;50345;51.136;16.886;2023-04-03T16:32:02;7.70;44.10
6956;DHT22;50345;51.136;16.886;2023-04-03T16:34:28;7.80;44.10
6956;DHT22;50345;51.136;16.886;2023-04-03T16:36:56;7.80;44.30
6956;DHT22;50345;51.136;16.886;2023-04-03T16:39:22;7.70;44.40
6956;DHT22;50345;51.136;16.886;2023-04-03T16:41:47;7.30;43.80
6956;DHT22;50345;51.136;16.886;2023-04-03T16:44:13;7.30;44.40
6956;DHT22;50345;51.136;16.886;2023-04-03T16:46:39;7.10;44.30
6956;DHT22;50345;51.136;16.886;2023-04-03T16:49:04;7.00;44.90
6956;DHT22;50345;51.136;16.886;2023-04-03T16:51:30;7.00;45.40
6956;DHT22;50345;51.136;16.886;2023-04-03T16:53:57;6.80;45.30
6956;DHT22;50345;51.136;16.886;2023-04-03T16:56:22;6.80;45.80
6956;DHT22;50345;51.136;16.886;2023-04-03T16:58:48;6.80;46.30
6956;DHT22;50345;51.136;16.886;2023-04-03T17:01:18;6.80;46.60
6956;DHT22;50345;51.136;16.886;2023-04-03T17:03:44;6.90;46.60
6956;DHT22;50345;51.136;16.886;2023-04-03T17:06:12;6.90;46.80
6956;DHT22;50345;51.136;16.886;2023-04-03T17:08:42;6.80;46.90
6956;DHT22;50345;51.136;16.886;2023-04-03T17:11:07;6.70;47.10
6956;DHT22;50345;51.136;16.886;2023-04-03T17:13:33;6.70;47.50
6956;DHT22;50345;51.136;16.886;2023-04-03T17:15:59;6.60;47.40
6956;DHT22;50345;51.136;16.886;2023-04-03T17:18:26;6.60;46.90
6956;DHT22;50345;51.136;16.886;2023-04-03T17:20:52;6.60;47.40
6956;DHT22;50345;51.136;16.886;2023-04-03T17:23:18;6.60;47.00
6956;DHT22;50345;51.136;16.886;2023-04-03T17:25:43;6.60;47.40
6956;DHT22;50345;51.136;16.886;2023-04-03T17:28:09;6.50;47.30
6956;DHT22;50345;51.136;16.886;2023-04-03T17:30:35;6.40;47.40
6956;DHT22;50345;51.136;16.886;2023-04-03T17:33:00;6.50;47.40
6956;DHT22;50345;51.136;16.886;2023-04-03T17:35:26;6.40;47.90
6956;DHT22;50345;51.136;16.886;2023-04-03T17:37:52;6.40;47.90
6956;DHT22;50345;51.136;16.886;2023-04-03T17:40:18;6.40;48.10
6956;DHT22;50345;51.136;16.886;2023-04-03T17:42:43;6.30;47.90
6956;DHT22;50345;51.136;16.886;2023-04-03T17:45:09;6.30;48.00
6956;DHT22;50345;51.136;16.886;2023-04-03T17:47:35;6.30;48.00